createdAt,value
2022-08-27T00:00:34.672Z,12.90
2022-08-27T00:03:03.246Z,15.18
2022-08-27T00:05:30.848Z,23.85
2022-08-27T00:07:57.453Z,20.33
2022-08-27T00:10:26.948Z,14.60
2022-08-27T00:12:55.711Z,12.80
2022-08-27T00:15:23.105Z,12.93
2022-08-27T00:17:49.863Z,11.65
2022-08-27T00:20:18.467Z,12.10
2022-08-27T00:22:45.652Z,11.75
2022-08-27T00:25:13.054Z,11.95
2022-08-27T00:27:41.261Z,12.02
2022-08-27T00:30:13.313Z,12.75
2022-08-27T00:32:42.591Z,12.75
2022-08-27T00:35:10.530Z,12.07
2022-08-27T00:37:38.156Z,12.35
2022-08-27T00:40:08.377Z,11.80
2022-08-27T00:42:35.236Z,11.38
2022-08-27T00:45:02.327Z,11.05
2022-08-27T00:47:31.831Z,9.15
2022-08-27T00:50:06.417Z,8.30
2022-08-27T00:52:36.688Z,8.35
2022-08-27T00:55:08.972Z,7.53
2022-08-27T00:57:39.031Z,8.45
2022-08-27T01:00:10.540Z,7.82
2022-08-27T01:02:37.481Z,8.02
2022-08-27T01:05:11.312Z,7.63
2022-08-27T01:07:41.254Z,7.70
2022-08-27T01:10:13.149Z,7.78
2022-08-27T01:12:40.173Z,7.40
2022-08-27T01:15:11.006Z,7.32
2022-08-27T01:17:41.378Z,8.07
2022-08-27T01:20:14.524Z,7.20
2022-08-27T01:23:08.216Z,8.85
2022-08-27T01:25:35.273Z,8.38
2022-08-27T01:28:03.834Z,8.25
2022-08-27T01:30:31.582Z,8.77
2022-08-27T01:32:58.267Z,8.60
2022-08-27T01:35:25.439Z,8.38
2022-08-27T01:37:56.985Z,8.85
2022-08-27T01:40:25.311Z,8.48
2022-08-27T01:42:54.664Z,8.40
2022-08-27T01:45:26.440Z,8.23
2022-08-27T01:47:53.301Z,8.60
2022-08-27T01:50:24.050Z,7.75
2022-08-27T01:52:52.245Z,7.78
2022-08-27T01:55:22.992Z,7.32
2022-08-27T01:57:50.117Z,6.68
2022-08-27T02:00:20.593Z,6.75
2022-08-27T02:02:49.117Z,6.80
2022-08-27T02:05:17.022Z,6.10
2022-08-27T02:07:44.819Z,6.70
2022-08-27T02:10:15.640Z,6.80
2022-08-27T02:12:42.459Z,6.78
2022-08-27T02:15:10.051Z,6.60
2022-08-27T02:17:36.667Z,7.10
2022-08-27T02:20:05.475Z,6.75
2022-08-27T02:22:32.317Z,7.72
2022-08-27T02:24:59.270Z,7.35
2022-08-27T02:27:26.009Z,7.03
2022-08-27T02:29:53.249Z,6.80
2022-08-27T02:32:32.307Z,6.60
2022-08-27T02:34:59.455Z,7.00
2022-08-27T02:37:26.597Z,7.20
2022-08-27T02:39:53.447Z,7.07
2022-08-27T02:42:20.351Z,7.80
2022-08-27T02:44:47.712Z,6.68
2022-08-27T02:47:15.481Z,6.18
2022-08-27T02:49:43.171Z,6.28
2022-08-27T02:52:11.409Z,6.13
2022-08-27T02:54:38.246Z,5.95
2022-08-27T02:57:06.335Z,5.95
2022-08-27T02:59:33.015Z,6.32
2022-08-27T03:01:59.932Z,6.40
2022-08-27T03:04:29.048Z,5.93
2022-08-27T03:06:57.057Z,6.63
2022-08-27T03:09:23.845Z,6.07
2022-08-27T03:11:50.717Z,6.03
2022-08-27T03:14:17.458Z,5.55
2022-08-27T03:16:44.175Z,5.70
2022-08-27T03:19:10.999Z,5.80
2022-08-27T03:21:37.761Z,6.10
2022-08-27T03:24:11.712Z,5.88
2022-08-27T03:26:41.464Z,5.88
2022-08-27T03:29:08.578Z,5.43
2022-08-27T03:31:35.259Z,6.28
2022-08-27T03:34:04.624Z,5.95
2022-08-27T03:36:31.859Z,5.35
2022-08-27T03:38:58.783Z,5.45
2022-08-27T03:41:43.869Z,5.65
2022-08-27T03:44:18.180Z,6.22
2022-08-27T03:46:49.641Z,6.30
2022-08-27T03:49:20.347Z,5.90
2022-08-27T03:51:48.619Z,6.18
2022-08-27T03:54:15.833Z,6.47
2022-08-27T03:56:42.586Z,6.40
2022-08-27T03:59:09.213Z,7.03
2022-08-27T04:01:36.403Z,6.80
2022-08-27T04:04:03.497Z,6.70
2022-08-27T04:06:30.288Z,7.65
2022-08-27T04:08:57.045Z,7.35
2022-08-27T04:11:24.163Z,7.10
2022-08-27T04:13:51.450Z,7.45
2022-08-27T04:16:18.754Z,6.78
2022-08-27T04:18:45.405Z,7.00
2022-08-27T04:21:13.875Z,7.88
2022-08-27T04:23:42.416Z,7.90
2022-08-27T04:26:11.878Z,7.80
2022-08-27T04:28:40.547Z,7.65
2022-08-27T04:31:16.628Z,8.07
2022-08-27T04:33:50.725Z,7.65
2022-08-27T04:38:44.674Z,8.10
2022-08-27T04:41:21.836Z,8.25
2022-08-27T04:43:56.856Z,8.00
2022-08-27T04:46:29.625Z,8.43
2022-08-27T04:48:58.928Z,8.45
2022-08-27T04:51:26.456Z,8.07
2022-08-27T04:53:54.333Z,8.63
2022-08-27T04:56:22.820Z,9.00
2022-08-27T04:58:50.836Z,8.70
2022-08-27T05:01:27.803Z,8.48
2022-08-27T05:03:55.029Z,8.52
2022-08-27T05:06:22.966Z,9.65
2022-08-27T05:08:51.026Z,9.48
2022-08-27T05:11:19.198Z,10.30
2022-08-27T05:13:46.344Z,9.88
2022-08-27T05:16:16.658Z,9.85
2022-08-27T05:18:48.529Z,9.45
2022-08-27T05:21:27.661Z,9.55
2022-08-27T05:23:56.345Z,9.27
2022-08-27T05:26:23.332Z,9.80
2022-08-27T05:28:50.869Z,8.88
2022-08-27T05:31:18.552Z,8.02
2022-08-27T05:33:47.262Z,8.30
2022-08-27T05:36:22.715Z,8.43
2022-08-27T05:38:50.796Z,7.97
2022-08-27T05:41:21.110Z,7.63
2022-08-27T05:43:50.440Z,7.70
2022-08-27T05:46:20.674Z,7.47
2022-08-27T05:48:48.822Z,7.30
2022-08-27T05:51:30.543Z,7.40
2022-08-27T05:54:00.018Z,8.45
2022-08-27T05:56:28.845Z,8.50
2022-08-27T05:59:14.691Z,8.68
2022-08-27T06:01:45.532Z,9.38
2022-08-27T06:04:17.488Z,8.65
2022-08-27T06:06:45.731Z,8.65
2022-08-27T06:09:15.584Z,8.77
2022-08-27T06:11:43.632Z,9.27
2022-08-27T06:14:10.764Z,10.65
2022-08-27T06:16:38.679Z,10.15
2022-08-27T06:19:06.532Z,10.40
2022-08-27T06:21:33.655Z,9.77
2022-08-27T06:24:01.072Z,9.93
2022-08-27T06:26:28.221Z,9.55
2022-08-27T06:28:55.446Z,9.95
2022-08-27T06:31:24.673Z,9.70
2022-08-27T06:33:53.735Z,10.23
2022-08-27T06:36:25.525Z,9.43
2022-08-27T06:38:54.656Z,10.82
2022-08-27T06:41:24.241Z,10.82
2022-08-27T06:43:52.199Z,10.50
2022-08-27T06:46:21.084Z,10.20
2022-08-27T06:48:49.713Z,9.93
2022-08-27T06:51:24.682Z,9.48
2022-08-27T06:53:52.746Z,8.50
2022-08-27T06:56:20.536Z,8.68
2022-08-27T06:58:48.962Z,8.63
2022-08-27T07:01:22.562Z,8.40
2022-08-27T07:03:49.640Z,8.13
2022-08-27T07:06:17.343Z,7.97
2022-08-27T07:08:53.164Z,7.78
2022-08-27T07:11:20.972Z,7.75
2022-08-27T07:13:49.155Z,7.32
2022-08-27T07:16:23.162Z,7.10
2022-08-27T07:18:52.407Z,6.78
2022-08-27T07:21:20.584Z,6.95
2022-08-27T07:23:48.838Z,6.68
2022-08-27T07:26:15.937Z,7.30
2022-08-27T07:28:44.311Z,7.10
2022-08-27T07:31:13.344Z,7.40
2022-08-27T07:33:46.114Z,6.55
2022-08-27T07:36:19.486Z,6.53
2022-08-27T07:38:46.237Z,5.88
2022-08-27T07:41:15.209Z,5.60
2022-08-27T07:44:00.594Z,5.50
2022-08-27T07:46:28.400Z,4.93
2022-08-27T07:48:57.671Z,5.10
2022-08-27T07:51:27.499Z,5.68
2022-08-27T07:53:54.504Z,5.15
2022-08-27T07:56:22.417Z,4.80
2022-08-27T07:58:49.755Z,4.60
2022-08-27T08:01:17.476Z,5.35
2022-08-27T08:03:44.690Z,5.38
2022-08-27T08:06:14.315Z,5.30
2022-08-27T08:08:42.160Z,5.95
2022-08-27T08:11:13.259Z,5.40
2022-08-27T08:13:40.145Z,5.60
2022-08-27T08:16:07.203Z,6.07
2022-08-27T08:18:36.197Z,6.25
2022-08-27T08:21:05.480Z,5.97
2022-08-27T08:23:33.890Z,5.65
2022-08-27T08:26:01.262Z,5.55
2022-08-27T08:28:29.397Z,5.50
2022-08-27T08:30:57.012Z,6.32
2022-08-27T08:33:23.893Z,6.28
2022-08-27T08:35:50.792Z,6.00
2022-08-27T08:38:18.761Z,6.22
2022-08-27T08:40:50.402Z,6.30
2022-08-27T08:43:40.737Z,6.15
2022-08-27T08:46:22.103Z,5.78
2022-08-27T08:48:50.623Z,6.18
2022-08-27T08:51:23.675Z,6.53
2022-08-27T08:53:57.709Z,6.22
2022-08-27T08:56:55.194Z,5.80
2022-08-27T08:59:37.332Z,6.20
2022-08-27T09:02:11.300Z,5.82
2022-08-27T09:04:43.724Z,6.03
2022-08-27T09:07:45.787Z,5.63
2022-08-27T09:11:03.918Z,5.68
2022-08-27T09:13:39.489Z,5.95
2022-08-27T09:16:06.808Z,5.88
2022-08-27T09:18:36.931Z,4.93
2022-08-27T09:21:45.553Z,5.57
2022-08-27T09:24:24.556Z,5.25
2022-08-27T09:26:51.577Z,4.85
2022-08-27T09:29:20.614Z,4.90
2022-08-27T09:32:13.605Z,5.00
2022-08-27T09:34:43.680Z,4.57
2022-08-27T09:37:23.479Z,4.18
2022-08-27T09:40:32.253Z,4.32
2022-08-27T09:43:20.331Z,4.25
2022-08-27T09:45:49.728Z,4.97
2022-08-27T09:48:34.826Z,5.22
2022-08-27T09:51:08.982Z,5.18
2022-08-27T09:53:52.316Z,5.50
2022-08-27T09:56:40.540Z,5.05
2022-08-27T09:59:13.084Z,5.32
2022-08-27T10:02:11.991Z,4.97
2022-08-27T10:04:50.967Z,5.35
2022-08-27T10:07:36.947Z,4.97
2022-08-27T10:10:11.306Z,5.10
2022-08-27T10:12:56.692Z,5.40
2022-08-27T10:15:24.949Z,5.43
2022-08-27T10:18:27.797Z,5.47
2022-08-27T10:21:15.613Z,5.35
2022-08-27T10:24:06.372Z,5.72
2022-08-27T10:26:52.819Z,5.95
2022-08-27T10:29:53.241Z,5.72
2022-08-27T10:33:26.984Z,6.32
2022-08-27T10:36:06.088Z,5.95
2022-08-27T10:38:44.804Z,5.80
2022-08-27T10:41:26.073Z,6.13
2022-08-27T10:44:32.138Z,6.00
2022-08-27T10:47:19.609Z,6.55
2022-08-27T10:49:52.922Z,6.10
2022-08-27T10:52:19.672Z,6.90
2022-08-27T10:55:10.597Z,6.18
2022-08-27T10:58:10.122Z,7.15
2022-08-27T11:01:09.316Z,7.07
2022-08-27T11:03:46.676Z,7.00
2022-08-27T11:06:28.264Z,7.20
2022-08-27T11:09:11.347Z,7.15
2022-08-27T11:12:13.786Z,7.10
2022-08-27T11:14:49.122Z,6.72
2022-08-27T11:17:19.337Z,6.38
2022-08-27T11:20:11.063Z,6.82
2022-08-27T11:22:42.516Z,6.45
2022-08-27T11:25:18.070Z,6.47
2022-08-27T11:27:45.713Z,6.30
2022-08-27T11:30:32.048Z,6.88
2022-08-27T11:33:07.287Z,5.93
2022-08-27T11:36:14.045Z,6.35
2022-08-27T11:39:19.122Z,6.03
2022-08-27T11:44:22.539Z,6.40
2022-08-27T11:46:52.391Z,6.63
2022-08-27T11:49:27.908Z,7.45
2022-08-27T11:52:03.505Z,6.10
2022-08-27T11:54:46.048Z,6.65
2022-08-27T11:57:27.768Z,6.13
2022-08-27T11:59:54.448Z,6.10
2022-08-27T12:02:27.579Z,6.03
2022-08-27T12:05:07.464Z,6.18
2022-08-27T12:07:37.407Z,5.68
2022-08-27T12:10:33.702Z,6.45
2022-08-27T12:13:25.496Z,6.03
2022-08-27T12:16:23.906Z,6.13
2022-08-27T12:19:04.242Z,6.57
2022-08-27T12:22:01.873Z,5.97
2022-08-27T12:24:55.640Z,5.65
2022-08-27T12:27:28.967Z,6.32
2022-08-27T12:30:02.785Z,6.43
2022-08-27T12:32:44.608Z,6.60
2022-08-27T12:35:15.031Z,5.97
2022-08-27T12:37:56.935Z,6.40
2022-08-27T12:40:29.921Z,6.63
2022-08-27T12:43:13.570Z,6.18
2022-08-27T12:45:52.697Z,6.33
2022-08-27T12:48:27.351Z,6.30
2022-08-27T12:50:56.348Z,6.80
2022-08-27T12:53:52.052Z,6.20
2022-08-27T12:56:53.189Z,6.70
2022-08-27T12:59:59.215Z,6.40
2022-08-27T13:02:55.369Z,6.22
2022-08-27T13:05:24.040Z,5.93
2022-08-27T13:07:52.441Z,6.35
2022-08-27T13:10:28.785Z,5.85
2022-08-27T13:13:09.497Z,5.90
2022-08-27T13:15:36.510Z,6.10
2022-08-27T13:18:04.782Z,6.13
2022-08-27T13:20:32.673Z,5.97
2022-08-27T13:22:59.602Z,5.68
2022-08-27T13:25:33.330Z,6.18
2022-08-27T13:28:15.557Z,5.63
2022-08-27T13:30:45.404Z,5.55
2022-08-27T13:33:17.523Z,5.47
2022-08-27T13:35:45.201Z,5.75
2022-08-27T13:38:12.908Z,5.15
2022-08-27T13:40:53.796Z,6.18
2022-08-27T13:43:22.228Z,5.50
2022-08-27T13:45:51.587Z,5.75
2022-08-27T13:48:19.271Z,5.95
2022-08-27T13:50:52.137Z,6.35
2022-08-27T13:53:41.388Z,5.70
2022-08-27T13:56:08.582Z,5.75
2022-08-27T13:58:36.676Z,5.40
2022-08-27T14:01:26.214Z,6.03
2022-08-27T14:03:57.972Z,5.80
2022-08-27T14:06:41.542Z,5.93
2022-08-27T14:09:25.593Z,5.67
2022-08-27T14:12:04.648Z,6.10
2022-08-27T14:14:36.820Z,5.90
2022-08-27T14:17:04.940Z,5.57
2022-08-27T14:19:36.268Z,6.03
2022-08-27T14:22:04.356Z,6.30
2022-08-27T14:24:30.973Z,6.00
2022-08-27T14:27:05.826Z,5.90
2022-08-27T14:29:32.440Z,6.00
2022-08-27T14:31:59.142Z,5.68
2022-08-27T14:34:29.508Z,5.90
2022-08-27T14:36:56.144Z,5.60
2022-08-27T14:42:10.794Z,5.30
2022-08-27T14:44:37.952Z,5.50
2022-08-27T14:47:09.402Z,5.25
2022-08-27T14:47:26.398Z,5.35
2022-08-27T14:49:41.486Z,5.45
2022-08-27T14:52:12.238Z,5.38
2022-08-27T14:54:39.542Z,5.32
2022-08-27T14:57:07.232Z,5.32
2022-08-27T14:59:34.768Z,5.28
2022-08-27T15:02:03.210Z,5.63
2022-08-27T15:04:30.953Z,4.90
2022-08-27T15:06:59.870Z,5.00
2022-08-27T15:09:28.402Z,4.70
2022-08-27T15:11:57.191Z,5.07
2022-08-27T15:14:36.273Z,4.60
2022-08-27T15:17:03.361Z,4.80
2022-08-27T15:19:49.000Z,4.60
2022-08-27T15:22:22.413Z,4.90
2022-08-27T15:24:54.415Z,5.97
2022-08-27T15:27:22.186Z,5.60
2022-08-27T15:29:49.348Z,5.55
2022-08-27T15:32:27.859Z,5.97
2022-08-27T15:34:57.034Z,5.40
2022-08-27T15:37:24.784Z,5.85
2022-08-27T15:39:51.533Z,5.30
2022-08-27T15:42:18.728Z,5.35
2022-08-27T15:44:50.142Z,5.82
2022-08-27T15:47:19.588Z,5.65
2022-08-27T15:49:46.671Z,5.90
2022-08-27T15:52:17.208Z,7.75
2022-08-27T15:54:45.022Z,8.23
2022-08-27T15:57:12.146Z,6.13
2022-08-27T15:59:39.672Z,6.28
2022-08-27T16:02:07.949Z,5.68
2022-08-27T16:04:34.981Z,5.80
2022-08-27T16:07:01.655Z,6.20
2022-08-27T16:09:28.377Z,6.28
2022-08-27T16:11:55.473Z,5.82
2022-08-27T16:14:22.314Z,5.82
2022-08-27T16:16:50.398Z,5.82
2022-08-27T16:19:18.227Z,6.18
2022-08-27T16:21:46.180Z,6.03
2022-08-27T16:24:14.089Z,7.00
2022-08-27T16:26:40.762Z,8.27
2022-08-27T16:29:07.523Z,4.57
2022-08-27T16:31:35.460Z,6.47
2022-08-27T16:34:03.244Z,4.90
2022-08-27T16:36:30.797Z,4.82
2022-08-27T16:38:57.512Z,4.07
2022-08-27T16:41:24.552Z,4.05
2022-08-27T16:43:51.245Z,4.30
2022-08-27T16:46:18.177Z,4.38
2022-08-27T16:49:03.528Z,4.40
2022-08-27T16:51:34.499Z,3.65
2022-08-27T16:54:06.468Z,4.43
2022-08-27T16:56:37.130Z,4.32
2022-08-27T16:59:04.919Z,4.35
2022-08-27T17:01:32.231Z,3.72
2022-08-27T17:04:13.834Z,3.65
2022-08-27T17:06:45.546Z,4.28
2022-08-27T17:09:12.655Z,3.67
2022-08-27T17:11:42.945Z,3.72
2022-08-27T17:14:13.182Z,3.67
2022-08-27T17:16:41.840Z,3.90
2022-08-27T17:19:09.874Z,3.72
2022-08-27T17:21:38.520Z,3.60
2022-08-27T17:24:12.313Z,4.07
2022-08-27T17:26:40.315Z,3.50
2022-08-27T17:29:07.103Z,3.70
2022-08-27T17:31:37.306Z,3.90
2022-08-27T17:34:06.725Z,3.35
2022-08-27T17:36:35.012Z,3.58
2022-08-27T17:39:03.183Z,3.25
2022-08-27T17:41:39.912Z,3.40
2022-08-27T17:44:33.497Z,3.67
2022-08-27T17:47:03.425Z,3.55
2022-08-27T17:49:34.510Z,2.80
2022-08-27T17:52:04.483Z,3.28
2022-08-27T17:54:56.836Z,3.35
2022-08-27T17:57:27.658Z,3.33
2022-08-27T17:59:55.493Z,3.25
2022-08-27T18:02:25.494Z,3.30
2022-08-27T18:04:54.013Z,3.10
2022-08-27T18:07:21.498Z,3.20
2022-08-27T18:09:49.123Z,3.20
2022-08-27T18:12:18.742Z,3.30
2022-08-27T18:14:46.442Z,2.90
2022-08-27T18:17:13.975Z,3.00
2022-08-27T18:19:45.493Z,3.17
2022-08-27T18:22:12.733Z,3.20
2022-08-27T18:24:40.601Z,3.13
2022-08-27T18:27:07.273Z,3.22
2022-08-27T18:29:33.849Z,3.00
2022-08-27T18:32:00.667Z,3.38
2022-08-27T18:34:27.870Z,2.88
2022-08-27T18:36:54.554Z,3.35
2022-08-27T18:39:21.147Z,3.00
2022-08-27T18:41:53.445Z,2.88
2022-08-27T18:44:20.085Z,3.10
2022-08-27T18:46:46.715Z,3.10
2022-08-27T18:49:14.671Z,3.08
2022-08-27T18:51:43.879Z,3.10
2022-08-27T18:54:11.442Z,3.05
2022-08-27T18:56:38.533Z,3.20
2022-08-27T18:59:07.011Z,3.00
2022-08-27T19:01:33.933Z,3.03
2022-08-27T19:04:01.252Z,3.10
2022-08-27T19:06:28.369Z,3.03
2022-08-27T19:08:56.521Z,2.78
2022-08-27T19:11:23.508Z,2.97
2022-08-27T19:13:50.953Z,3.20
2022-08-27T19:16:23.706Z,3.22
2022-08-27T19:18:51.080Z,3.10
2022-08-27T19:21:18.014Z,3.40
2022-08-27T19:23:45.419Z,3.08
2022-08-27T19:26:18.120Z,3.20
2022-08-27T19:28:45.361Z,3.42
2022-08-27T19:31:13.379Z,3.25
2022-08-27T19:33:40.607Z,3.20
2022-08-27T19:36:11.454Z,3.20
2022-08-27T19:38:42.072Z,3.58
2022-08-27T19:41:09.063Z,3.35
2022-08-27T19:43:35.713Z,3.55
2022-08-27T19:46:03.651Z,3.47
2022-08-27T19:48:31.401Z,3.10
2022-08-27T19:50:59.216Z,3.50
2022-08-27T19:53:26.201Z,3.50
2022-08-27T19:55:53.017Z,3.28
2022-08-27T19:58:20.521Z,3.53
2022-08-27T20:00:47.345Z,3.40
2022-08-27T20:03:14.569Z,3.30
2022-08-27T20:05:41.561Z,3.10
2022-08-27T20:08:08.978Z,3.50
2022-08-27T20:10:36.581Z,3.70
2022-08-27T20:13:04.678Z,3.45
2022-08-27T20:15:32.024Z,3.40
2022-08-27T20:18:03.077Z,3.47
2022-08-27T20:20:31.462Z,3.40
2022-08-27T20:23:01.017Z,3.47
2022-08-27T20:25:27.765Z,3.45
2022-08-27T20:27:54.884Z,3.20
2022-08-27T20:30:24.360Z,2.90
2022-08-27T20:32:51.043Z,3.08
2022-08-27T20:35:19.026Z,3.13
2022-08-27T20:37:46.461Z,3.40
2022-08-27T20:40:26.501Z,3.28
2022-08-27T20:42:53.536Z,3.35
2022-08-27T20:45:21.241Z,3.47
2022-08-27T20:47:49.417Z,3.28
2022-08-27T20:50:17.785Z,2.83
2022-08-27T20:52:45.704Z,3.45
2022-08-27T20:55:14.376Z,3.00
2022-08-27T20:58:04.409Z,3.10
2022-08-27T21:00:34.730Z,2.90
2022-08-27T21:03:01.789Z,3.35
2022-08-27T21:05:32.518Z,3.13
2022-08-27T21:07:59.456Z,3.05
2022-08-27T21:10:26.816Z,3.08
2022-08-27T21:12:54.033Z,3.13
2022-08-27T21:15:21.265Z,2.83
2022-08-27T21:17:47.898Z,2.90
2022-08-27T21:20:14.804Z,2.80
2022-08-27T21:22:43.941Z,2.78
2022-08-27T21:25:13.219Z,3.03
2022-08-27T21:27:41.242Z,3.08
2022-08-27T21:30:11.368Z,3.20
2022-08-27T21:32:38.842Z,3.20
2022-08-27T21:35:06.464Z,3.13
2022-08-27T21:37:33.391Z,2.90
2022-08-27T21:40:00.619Z,2.72
2022-08-27T21:42:27.475Z,2.72
2022-08-27T21:44:54.087Z,3.10
2022-08-27T21:47:20.722Z,2.85
2022-08-27T21:49:47.557Z,3.05
2022-08-27T21:52:14.306Z,2.72
2022-08-27T21:54:42.900Z,2.88
2022-08-27T21:57:14.007Z,2.70
2022-08-27T21:59:46.443Z,2.80
2022-08-27T22:02:38.274Z,3.15
2022-08-27T22:05:02.385Z,2.85
2022-08-27T22:07:29.440Z,2.75
2022-08-27T22:09:56.045Z,2.50
2022-08-27T22:12:22.781Z,2.45
2022-08-27T22:14:49.938Z,2.97
2022-08-27T22:17:16.902Z,3.10
2022-08-27T22:19:43.832Z,3.13
2022-08-27T22:22:10.537Z,3.05
2022-08-27T22:24:38.019Z,2.95
2022-08-27T22:27:05.092Z,3.00
2022-08-27T22:29:31.783Z,2.75
2022-08-27T22:31:58.684Z,2.85
2022-08-27T22:34:25.425Z,3.50
2022-08-27T22:36:52.160Z,3.00
2022-08-27T22:39:19.122Z,3.15
2022-08-27T22:41:48.762Z,2.97
2022-08-27T22:44:15.875Z,2.78
2022-08-27T22:46:42.977Z,2.88
2022-08-27T22:49:10.050Z,2.60
2022-08-27T22:51:37.041Z,2.97
2022-08-27T22:54:03.904Z,3.13
2022-08-27T22:56:30.731Z,3.15
2022-08-27T22:58:57.564Z,3.00
2022-08-27T23:01:25.055Z,2.95
2022-08-27T23:03:53.443Z,3.00
2022-08-27T23:06:20.206Z,3.03
2022-08-27T23:08:47.010Z,3.60
2022-08-27T23:11:16.027Z,3.35
2022-08-27T23:13:42.712Z,2.67
2022-08-27T23:16:09.850Z,2.80
2022-08-27T23:18:38.764Z,3.08
2022-08-27T23:21:06.169Z,3.10
2022-08-27T23:23:34.329Z,2.97
2022-08-27T23:26:20.056Z,3.08
2022-08-27T23:28:47.515Z,2.90
2022-08-27T23:31:15.339Z,2.90
2022-08-27T23:33:42.489Z,3.72
2022-08-27T23:36:10.187Z,3.47
2022-08-27T23:38:37.614Z,3.60
2022-08-27T23:41:06.287Z,3.40
2022-08-27T23:43:32.881Z,3.13
2022-08-27T23:45:59.715Z,3.28
2022-08-27T23:48:26.925Z,3.00
2022-08-27T23:50:53.738Z,3.30
2022-08-27T23:53:20.465Z,3.17
2022-08-27T23:55:47.465Z,3.55
2022-08-27T23:58:14.161Z,3.17
